METAR SBMG

2018022206 - METAR SBMG 220600Z 23004KT CAVOK 20/17 Q1010=

Escala PR-FEA

ESCALA - SIMULADOR GA-18

Escala PR-FGM
Powered by ©Kanestech